Terminal Aerodrome Forecast
Issued by NWS

Home | Current Version | Previous Version | Text Only | Print | Product List | Glossary On
Versions: 1 2 3 4 5 6 7 8 9 10 11 12 13 14
393
FTUS45 KTFX 231122
TAFBZN
TAF
KBZN 231122Z 2312/2418 VRB06KT 6SM RASN SCT008 OVC015 WS020/07030KT
     FM231400 31011G19KT P6SM RASN SCT003 OVC015
      TEMPO 2314/2318 4SM -SNRA BKN020
     FM231800 02007KT P6SM -RA SCT008 OVC025
     FM232200 05006KT P6SM SCT010 OVC050 PROB30 2322/2401 4SM -RA
      BKN025
     FM240500 VRB05KT P6SM FEW010 SCT090=

USA.gov is the U.S. government's official web portal to all federal, state and local government web resources and services.